Time;durP1;ratioP1;P1;durP2;ratioP2;P2;SDS_P1;SDS_P2;PMS_P1;PMS_P2;Temp;Humidity;BMP_temperature;BMP_pressure;BME280_temperature;BME280_humidity;BME280_pressure;Samples;Min_cycle;Max_cycle;Signal;HPM_P1;HPM_P2
2021/10/14 00:00:29;;;;;;;1999.90;999.90;;;;;;;11.75;73.78;101763.91;15672164;28;20510;-57
2021/10/14 00:08:03;;;;;;;1999.90;999.90;;;;;;;11.58;74.05;101756.22;15687129;28;20095;-56
2021/10/14 00:15:44;;;;;;;1999.90;999.90;;;;;;;11.69;73.83;101751.22;15695560;28;20106;-55
2021/10/14 00:23:17;;;;;;;1999.90;999.90;;;;;;;11.71;73.74;101755.34;15690398;28;20040;-55
2021/10/14 00:30:53;;;;;;;1999.90;999.90;;;;;;;11.73;74.01;101753.06;15670109;28;20127;-56
2021/10/14 00:38:31;;;;;;;1999.90;999.90;;;;;;;11.56;74.67;101744.50;15715953;28;20053;-52
2021/10/14 00:46:15;;;;;;;1999.90;999.90;;;;;;;11.57;74.72;101741.41;15699533;28;20414;-52
2021/10/14 00:53:49;;;;;;;1999.90;999.90;;;;;;;11.54;75.33;101736.44;15689707;28;20095;-60
2021/10/14 01:01:24;;;;;;;;;;;;;;;11.55;75.12;101742.84;15691451;28;20346;-56
2021/10/14 01:08:59;;;;;;;1999.90;999.90;;;;;;;11.64;75.57;101737.34;15712035;28;19928;-54
2021/10/14 01:16:49;;;;;;;1999.90;999.90;;;;;;;11.65;75.43;101739.81;15715206;28;20083;-53
2021/10/14 01:24:25;;;;;;;1999.90;999.90;;;;;;;11.76;75.44;101723.63;15657130;28;20064;-54
2021/10/14 01:32:09;;;;;;;1999.90;999.90;;;;;;;11.70;75.63;101730.50;15680940;28;20041;-60
2021/10/14 01:39:46;;;;;;;1999.90;999.90;;;;;;;11.79;75.92;101723.88;15714100;28;20069;-53
2021/10/14 01:47:21;;;;;;;1999.90;999.90;;;;;;;11.72;76.15;101701.06;15703645;28;20045;-57
2021/10/14 01:55:00;;;;;;;1999.90;999.90;;;;;;;11.85;75.37;101694.63;15720422;28;20048;-55
2021/10/14 02:02:34;;;;;;;1999.90;999.90;;;;;;;11.83;75.45;101684.91;15712698;28;20041;-56
2021/10/14 02:10:12;;;;;;;1999.90;999.90;;;;;;;11.81;75.94;101692.78;15679323;28;20417;-55
2021/10/14 02:18:04;;;;;;;1999.90;999.90;;;;;;;11.79;76.18;101695.91;15723881;22;20371;-58
2021/10/14 02:25:42;;;;;;;1999.90;999.90;;;;;;;11.78;77.05;101690.59;15775289;28;20093;-60
2021/10/14 02:33:19;;;;;;;1999.90;999.90;;;;;;;11.61;77.94;101679.28;15713941;28;20041;-59
2021/10/14 02:41:02;;;;;;;1999.90;999.90;;;;;;;11.74;78.29;101665.22;15738135;28;20055;-61
2021/10/14 02:48:36;;;;;;;1999.90;999.90;;;;;;;11.63;77.89;101668.59;15707576;28;20048;-59
2021/10/14 02:56:12;;;;;;;1999.90;999.90;;;;;;;11.81;77.97;101654.47;15723331;28;20049;-59
2021/10/14 03:03:45;;;;;;;1999.90;999.90;;;;;;;11.83;77.42;101657.75;15709504;28;20082;-59
2021/10/14 03:11:21;;;;;;;1999.90;999.90;;;;;;;11.92;77.38;101651.41;15695367;28;20521;-56
2021/10/14 03:18:56;;;;;;;1999.90;999.90;;;;;;;11.72;77.89;101635.94;15687345;28;20512;-59
2021/10/14 03:26:31;;;;;;;1999.90;999.90;;;;;;;11.71;78.37;101637.09;15694889;28;20088;-57
2021/10/14 03:34:12;;;;;;;1999.90;999.90;;;;;;;11.67;79.14;101628.53;15690725;28;20044;-59
2021/10/14 03:41:49;;;;;;;1999.90;999.90;;;;;;;11.76;79.37;101628.56;15699862;28;20135;-56
2021/10/14 03:49:22;;;;;;;1999.90;999.90;;;;;;;11.65;79.58;101622.41;15704046;28;20048;-56
2021/10/14 03:56:58;;;;;;;1999.90;999.90;;;;;;;11.52;80.17;101618.53;15742795;28;20045;-58
2021/10/14 04:04:31;;;;;;;1999.90;999.90;;;;;;;11.49;80.87;101624.75;15703223;28;20498;-60
2021/10/14 04:12:06;;;;;;;1999.90;999.90;;;;;;;11.55;81.04;101617.88;15722079;28;20405;-58
2021/10/14 04:19:39;;;;;;;1999.90;999.90;;;;;;;11.59;80.47;101611.69;15702705;28;20581;-58
2021/10/14 04:27:15;;;;;;;1999.90;999.90;;;;;;;11.65;81.06;101610.38;15679366;28;20048;-56
2021/10/14 04:34:50;;;;;;;1999.90;999.90;;;;;;;11.58;81.11;101608.06;15721168;28;20045;-60
2021/10/14 04:42:27;;;;;;;1999.90;999.90;;;;;;;11.65;81.06;101604.78;15691880;28;20059;-58
2021/10/14 04:50:01;;;;;;;1999.90;999.90;;;;;;;11.65;81.68;101607.59;15682037;28;20079;-60
2021/10/14 04:57:35;;;;;;;1999.90;999.90;;;;;;;11.65;82.38;101602.81;15684471;28;20052;-60
2021/10/14 05:05:09;;;;;;;1999.90;999.90;;;;;;;11.62;82.61;101592.28;15706691;28;20299;-59
2021/10/14 05:12:44;;;;;;;1999.90;999.90;;;;;;;11.77;81.89;101599.44;15699301;28;20041;-59
2021/10/14 05:20:28;;;;;;;1999.90;999.90;;;;;;;11.60;82.45;101596.56;15687214;28;20048;-61
2021/10/14 05:28:03;;;;;;;1999.90;999.90;;;;;;;11.76;82.54;101600.59;15698076;28;20045;-63
2021/10/14 05:35:36;;;;;;;1999.90;999.90;;;;;;;11.78;82.69;101596.34;15709036;28;20045;-62
2021/10/14 05:43:14;;;;;;;1999.90;999.90;;;;;;;11.60;83.14;101602.97;15664896;28;20065;-63
2021/10/14 05:50:48;;;;;;;1999.90;999.90;;;;;;;11.86;82.38;101597.56;15657382;28;20505;-63
2021/10/14 05:58:22;;;;;;;1999.90;999.90;;;;;;;11.74;83.32;101598.13;15677228;28;20060;-63
2021/10/14 06:06:01;;;;;;;1999.90;999.90;;;;;;;11.88;82.87;101605.63;15658750;28;20140;-64
2021/10/14 06:13:37;;;;;;;1999.90;999.90;;;;;;;11.94;83.13;101609.94;15675551;28;20216;-63
2021/10/14 06:21:10;;;;;;;1999.90;999.90;;;;;;;11.99;83.19;101607.84;15657621;28;20522;-63
2021/10/14 06:28:44;;;;;;;1999.90;999.90;;;;;;;12.05;82.89;101603.75;15631346;28;20117;-63
2021/10/14 06:36:20;;;;;;;1999.90;999.90;;;;;;;12.19;82.55;101600.00;15604275;28;20506;-63
2021/10/14 06:43:54;;;;;;;1999.90;999.90;;;;;;;12.40;81.96;101606.69;15607468;28;20041;-62
2021/10/14 06:51:31;;;;;;;1999.90;999.90;;;;;;;12.39;82.14;101600.25;15624617;28;20052;-63
2021/10/14 06:59:05;;;;;;;1999.90;999.90;;;;;;;12.58;82.08;101614.00;15624624;28;20045;-64
2021/10/14 07:06:37;;;;;;;1999.90;999.90;;;;;;;12.60;82.26;101613.66;15624147;28;20103;-63
2021/10/14 07:14:19;;;;;;;1999.90;999.90;;;;;;;12.71;82.37;101612.22;15607654;28;20033;-63
2021/10/14 07:21:52;;;;;;;1999.90;999.90;;;;;;;12.83;82.58;101606.00;15604860;28;20046;-63
2021/10/14 07:29:28;;;;;;;1999.90;999.90;;;;;;;12.82;83.02;101607.13;15655124;28;20124;-63
2021/10/14 07:37:01;;;;;;;1999.90;999.90;;;;;;;13.10;81.83;101600.09;15666917;28;20094;-63
2021/10/14 07:44:35;;;;;;;1999.90;999.90;;;;;;;13.05;82.27;101605.88;15682311;28;20154;-63
2021/10/14 07:52:08;;;;;;;1999.90;999.90;;;;;;;13.03;82.43;101604.56;15665390;28;20440;-62
2021/10/14 07:59:42;;;;;;;1999.90;999.90;;;;;;;13.25;81.58;101591.22;15665367;28;20049;-64
2021/10/14 08:07:15;;;;;;;1999.90;999.90;;;;;;;13.51;81.35;101598.78;15664193;28;20060;-63
2021/10/14 08:14:55;;;;;;;1999.90;999.90;;;;;;;13.29;82.20;101603.41;15681573;28;20044;-63
2021/10/14 08:22:28;;;;;;;1999.90;999.90;;;;;;;13.09;83.14;101614.44;15672492;22;20048;-60
2021/10/14 08:30:03;;;;;;;1999.90;999.90;;;;;;;13.53;82.18;101616.91;15656191;28;20106;-57
2021/10/14 08:37:37;;;;;;;1999.90;999.90;;;;;;;13.81;81.18;101608.97;15675158;28;20076;-57
2021/10/14 08:45:13;;;;;;;1999.90;999.90;;;;;;;13.70;82.01;101607.66;15673804;28;20215;-59
2021/10/14 08:52:48;;;;;;;1999.90;999.90;;;;;;;13.99;81.25;101611.75;15674401;28;20141;-60
2021/10/14 09:00:29;;;;;;;1999.90;999.90;;;;;;;13.58;82.38;101607.53;15671078;28;20041;-59
2021/10/14 09:08:02;;;;;;;1999.90;999.90;;;;;;;13.73;82.72;101594.97;15654806;28;20052;-57
2021/10/14 09:15:36;;;;;;;1999.90;999.90;;;;;;;13.96;82.32;101592.75;15671817;28;20355;-57
2021/10/14 09:23:11;;;;;;;1999.90;999.90;;;;;;;13.67;83.12;101596.31;15671162;28;20049;-56
2021/10/14 09:30:57;;;;;;;1999.90;999.90;;;;;;;13.80;83.01;101598.91;15670935;28;20135;-57
2021/10/14 09:38:33;;;;;;;1999.90;999.90;;;;;;;13.92;82.72;101600.19;15670819;28;20105;-55
2021/10/14 09:46:09;;;;;;;1999.90;999.90;;;;;;;13.83;83.04;101598.22;15686964;28;20079;-56
2021/10/14 09:53:41;;;;;;;1999.90;999.90;;;;;;;14.13;82.56;101606.72;15654189;28;20053;-56
2021/10/14 10:01:15;;;;;;;1999.90;999.90;;;;;;;14.16;82.37;101609.69;15671488;28;20045;-55
2021/10/14 10:08:50;;;;;;;1999.90;999.90;;;;;;;14.49;81.96;101605.47;15674099;28;20056;-58
2021/10/14 10:16:25;;;;;;;1999.90;999.90;;;;;;;14.50;81.89;101593.91;15683502;28;20133;-58
2021/10/14 10:23:58;;;;;;;1999.90;999.90;;;;;;;14.67;82.10;101596.59;15681330;28;20036;-58
2021/10/14 10:32:15;;;;;;;1999.90;999.90;;;;;;;14.80;81.65;101588.25;15681177;28;20485;-57
2021/10/14 10:40:01;;;;;;;1999.90;999.90;;;;;;;14.90;81.67;101583.06;15682301;28;20053;-53
2021/10/14 10:47:49;;;;;;;1999.90;999.90;;;;;;;14.76;82.76;101571.25;15679535;28;20102;-53
2021/10/14 10:55:43;;;;;;;1999.90;999.90;;;;;;;14.79;82.22;101564.94;15662943;28;20063;-54
2021/10/14 11:03:26;;;;;;;1999.90;999.90;;;;;;;14.72;83.08;101559.06;15680125;28;20098;-58
2021/10/14 11:11:04;;;;;;;1999.90;999.90;;;;;;;14.69;82.56;101548.47;15678996;28;20389;-55
2021/10/14 11:18:41;;;;;;;1999.90;999.90;;;;;;;14.90;82.72;101548.50;15680191;28;20037;-56
2021/10/14 11:26:16;;;;;;;1999.90;999.90;;;;;;;15.11;82.18;101545.69;15679583;28;20202;-55
2021/10/14 11:33:51;;;;;;;1999.90;999.90;;;;;;;15.68;81.21;101528.94;15678928;28;20079;-59
2021/10/14 11:41:24;;;;;;;1999.90;999.90;;;;;;;15.41;80.77;101523.91;15678134;28;20036;-55
2021/10/14 11:49:00;;;;;;;1999.90;999.90;;;;;;;15.53;80.64;101516.34;15677231;28;20080;-52
2021/10/14 11:56:44;;;;;;;1999.90;999.90;;;;;;;15.26;81.31;101517.78;15676018;28;20037;-60
2021/10/14 12:04:23;;;;;;;1999.90;999.90;;;;;;;15.54;80.66;101506.75;15677217;28;20045;-57
2021/10/14 12:11:57;;;;;;;1999.90;999.90;;;;;;;15.43;81.67;101508.34;15676487;28;20545;-56
2021/10/14 12:19:37;;;;;;;1999.90;999.90;;;;;;;15.27;82.69;101493.28;15675902;28;20148;-57
2021/10/14 12:27:10;;;;;;;1999.90;999.90;;;;;;;15.34;82.32;101496.38;15675002;28;20132;-55
2021/10/14 12:34:59;;;;;;;1999.90;999.90;;;;;;;15.70;81.00;101497.66;15674270;28;20041;-55
2021/10/14 12:42:44;;;;;;;1999.90;999.90;;;;;;;15.65;81.59;101495.91;15673671;28;20053;-56
2021/10/14 12:50:30;;;;;;;1999.90;999.90;;;;;;;15.96;80.39;101486.09;15674337;28;20064;-58
2021/10/14 12:58:03;;;;;;;1999.90;999.90;;;;;;;15.54;80.82;101486.22;15674659;28;20076;-55
2021/10/14 13:05:37;;;;;;;1999.90;999.90;;;;;;;15.76;80.46;101479.38;15673589;28;20518;-58
2021/10/14 13:13:11;;;;;;;1999.90;999.90;;;;;;;15.64;80.40;101471.75;15671761;28;20062;-58
2021/10/14 13:20:49;;;;;;;1999.90;999.90;;;;;;;15.76;80.31;101462.50;15673034;28;20095;-58
2021/10/14 13:28:30;;;;;;;1999.90;999.90;;;;;;;15.70;80.24;101463.88;15672008;28;20045;-56
2021/10/14 13:36:07;;;;;;;1999.90;999.90;;;;;;;15.89;79.40;101458.50;15670081;28;20057;-57
2021/10/14 13:43:42;;;;;;;1999.90;999.90;;;;;;;15.60;79.17;101445.47;15678121;28;20037;-59
2021/10/14 13:51:20;;;;;;;1999.90;999.90;;;;;;;15.86;78.16;101447.97;15684942;28;20103;-57
2021/10/14 13:58:52;;;;;;;1999.90;999.90;;;;;;;15.89;78.39;101450.06;15682886;28;20483;-57
2021/10/14 14:06:29;;;;;;;1999.90;999.90;;;;;;;15.93;78.08;101436.91;15683238;28;20110;-56
2021/10/14 14:14:01;;;;;;;1999.90;999.90;;;;;;;16.08;76.71;101429.78;15683076;28;20041;-57
2021/10/14 14:21:36;;;;;;;;;;;;;;;16.30;75.89;101434.91;15689731;28;20048;-57
2021/10/14 14:29:09;;;;;;;1999.90;999.90;;;;;;;15.71;76.43;101429.75;15681857;28;20345;-60
2021/10/14 14:36:44;;;;;;;1999.90;999.90;;;;;;;15.82;76.07;101428.13;15689308;28;20045;-59
2021/10/14 14:44:17;;;;;;;1999.90;999.90;;;;;;;15.85;76.00;101423.81;15680071;28;20044;-60
2021/10/14 14:51:51;;;;;;;1999.90;999.90;;;;;;;15.54;75.94;101421.53;15679290;28;20442;-59
2021/10/14 14:59:27;;;;;;;1999.90;999.90;;;;;;;15.68;75.89;101426.84;15715711;28;20554;-59
2021/10/14 15:07:01;;;;;;;1999.90;999.90;;;;;;;15.51;76.32;101416.59;15688293;28;20041;-58
2021/10/14 15:14:35;;;;;;;1999.90;999.90;;;;;;;15.58;75.76;101414.03;15678042;28;20045;-56
2021/10/14 15:22:11;;;;;;;1999.90;999.90;;;;;;;15.54;76.00;101419.53;15708104;28;20114;-59
2021/10/14 15:29:44;;;;;;;1999.90;999.90;;;;;;;15.41;76.68;101412.22;15677770;28;20072;-55
2021/10/14 15:37:19;;;;;;;1999.90;999.90;;;;;;;15.23;75.95;101416.44;15692390;28;20129;-58
2021/10/14 15:44:53;;;;;;;1999.90;999.90;;;;;;;15.18;75.88;101411.03;15696315;28;20052;-52
2021/10/14 15:52:27;;;;;;;1999.90;999.90;;;;;;;15.01;77.53;101409.25;15670108;28;20473;-57
2021/10/14 16:00:01;;;;;;;1999.90;999.90;;;;;;;15.02;77.52;101405.25;15688595;28;20049;-59
2021/10/14 16:07:45;;;;;;;1999.90;999.90;;;;;;;14.99;77.71;101403.94;15696512;28;20431;-56
2021/10/14 16:15:18;;;;;;;1999.90;999.90;;;;;;;15.11;76.89;101406.00;15705288;28;20044;-58
2021/10/14 16:22:52;;;;;;;1999.90;999.90;;;;;;;14.95;77.65;101397.38;15666058;28;20030;-57
2021/10/14 16:30:30;;;;;;;1999.90;999.90;;;;;;;14.93;77.42;101393.28;15672907;28;20132;-54
2021/10/14 16:38:04;;;;;;;1999.90;999.90;;;;;;;14.97;77.30;101395.03;15681734;28;20096;-56
2021/10/14 16:45:36;;;;;;;1999.90;999.90;;;;;;;15.06;77.02;101388.50;15674998;28;20037;-58
2021/10/14 16:53:10;;;;;;;1999.90;999.90;;;;;;;14.90;77.31;101389.19;15709760;28;20103;-57
2021/10/14 17:00:42;;;;;;;1999.90;999.90;;;;;;;14.89;76.92;101397.94;15715204;28;20509;-58
2021/10/14 17:08:18;;;;;;;1999.90;999.90;;;;;;;14.67;78.06;101390.72;15733226;28;20044;-59
2021/10/14 17:15:51;;;;;;;1999.90;999.90;;;;;;;14.83;77.97;101397.34;15727540;28;20398;-57
2021/10/14 17:23:40;;;;;;;1999.90;999.90;;;;;;;14.64;78.75;101395.03;15698844;28;20041;-60
2021/10/14 17:39:06;;;;;;;1999.90;999.90;;;;;;;14.69;78.56;101389.22;15669883;28;20443;-58
2021/10/14 17:46:40;;;;;;;1999.90;999.90;;;;;;;14.71;78.23;101383.25;15667263;28;20515;-59
2021/10/14 17:54:15;;;;;;;1999.90;999.90;;;;;;;14.64;78.57;101385.78;15665257;28;20129;-61
2021/10/14 18:01:48;;;;;;;1999.90;999.90;;;;;;;14.60;78.08;101382.03;15691594;28;20049;-60
2021/10/14 18:40:46;;;;;;;1999.90;999.90;;;;;;;14.64;77.14;101371.75;15676978;28;20045;-59
2021/10/14 18:48:21;;;;;;;1999.90;999.90;;;;;;;14.64;76.78;101366.94;15674378;28;20048;-58
2021/10/14 18:55:58;;;;;;;1999.90;999.90;;;;;;;14.69;77.13;101377.97;15674453;28;20432;-58
2021/10/14 19:03:37;;;;;;;1999.90;999.90;;;;;;;14.55;76.97;101366.19;15672828;28;20041;-59
2021/10/14 19:19:27;;;;;;;1999.90;999.90;;;;;;;14.50;77.56;101354.38;15669997;28;20040;-59
2021/10/14 20:14:50;;;;;;;1999.90;999.90;;;;;;;14.47;76.70;101357.84;15565838;28;20052;-61
2021/10/14 20:22:25;;;;;;;1999.90;999.90;;;;;;;14.52;76.39;101354.84;15709546;28;20051;-57
2021/10/14 20:30:02;;;;;;;1999.90;999.90;;;;;;;14.39;76.82;101353.94;15622813;28;20128;-60
2021/10/14 20:37:35;;;;;;;1999.90;999.90;;;;;;;14.52;76.23;101347.25;15663209;28;20247;-58
2021/10/14 20:45:11;;;;;;;1999.90;999.90;;;;;;;14.55;76.30;101340.91;15666515;28;20036;-57
2021/10/14 20:52:52;;;;;;;1999.90;999.90;;;;;;;14.46;76.16;101345.78;15627651;28;20528;-58
2021/10/14 21:08:18;;;;;;;1999.90;999.90;;;;;;;14.83;74.94;101349.56;15688573;28;20055;-55
2021/10/14 21:15:52;;;;;;;1999.90;999.90;;;;;;;14.85;74.93;101330.38;15694996;28;20068;-57
2021/10/14 21:23:26;;;;;;;1999.90;999.90;;;;;;;14.60;75.72;101342.72;15682805;28;20041;-57
2021/10/14 21:31:14;;;;;;;1999.90;999.90;;;;;;;14.64;76.04;101335.22;15674965;28;20045;-59
2021/10/14 21:38:48;;;;;;;1999.90;999.90;;;;;;;14.69;75.72;101330.22;15677086;28;20113;-55
2021/10/14 21:46:22;;;;;;;1999.90;999.90;;;;;;;14.88;75.03;101320.41;15673956;28;20041;-60
2021/10/14 21:54:01;;;;;;;1999.90;999.90;;;;;;;14.90;75.01;101321.75;15712022;28;20080;-57
2021/10/14 22:01:36;;;;;;;1999.90;999.90;;;;;;;14.78;75.26;101307.63;15674348;28;20049;-60
2021/10/14 22:09:09;;;;;;;1999.90;999.90;;;;;;;14.86;75.15;101303.91;15677956;28;20049;-57
2021/10/14 22:16:44;;;;;;;1999.90;999.90;;;;;;;14.89;75.00;101299.59;15726299;28;20091;-59
2021/10/14 22:24:16;;;;;;;1999.90;999.90;;;;;;;14.77;75.22;101291.13;15715120;28;20033;-59
2021/10/14 22:31:52;;;;;;;1999.90;999.90;;;;;;;14.89;74.92;101280.72;15688138;28;20138;-57
2021/10/14 22:39:25;;;;;;;1999.90;999.90;;;;;;;14.65;75.40;101275.88;15731136;28;20480;-60
2021/10/14 22:47:02;;;;;;;1999.90;999.90;;;;;;;14.73;75.12;101262.94;15735111;28;20041;-59
2021/10/14 22:54:37;;;;;;;1999.90;999.90;;;;;;;14.89;74.74;101263.06;15723569;28;20055;-58
2021/10/14 23:02:14;;;;;;;1999.90;999.90;;;;;;;14.78;75.11;101259.88;15714037;28;20044;-57
2021/10/14 23:09:47;;;;;;;1999.90;999.90;;;;;;;14.66;75.53;101252.25;15700222;28;20082;-55
2021/10/14 23:17:23;;;;;;;1999.90;999.90;;;;;;;14.61;75.28;101243.25;15670124;28;20127;-56
2021/10/14 23:24:56;;;;;;;1999.90;999.90;;;;;;;14.54;75.57;101232.56;15694254;28;20044;-58
2021/10/14 23:32:30;;;;;;;1999.90;999.90;;;;;;;14.63;75.19;101227.69;15726129;28;20047;-60
2021/10/14 23:40:04;;;;;;;1999.90;999.90;;;;;;;14.55;75.33;101217.34;15690580;28;20037;-59
2021/10/14 23:47:38;;;;;;;1999.90;999.90;;;;;;;14.65;75.04;101202.88;15702571;28;20037;-59
2021/10/14 23:55:11;;;;;;;1999.90;999.90;;;;;;;14.32;76.18;101188.03;15715043;28;20052;-58
